Time;durP1;ratioP1;P1;durP2;ratioP2;P2;SDS_P1;SDS_P2;PMS_P1;PMS_P2;Temp;Humidity;BMP_temperature;BMP_pressure;BME280_temperature;BME280_humidity;BME280_pressure;Samples;Min_cycle;Max_cycle;Signal;HPM_P1;HPM_P2
2023/01/14 00:01:03;;;;;;;1999.90;999.90;;;12.10;99.90;;;;;;4947125;28;20172;-76
2023/01/14 00:03:29;;;;;;;1999.90;999.90;;;11.10;99.90;;;;;;4951750;28;20480;-76
2023/01/14 00:05:59;;;;;;;1999.90;999.90;;;13.00;99.90;;;;;;4931598;29;20047;-76
2023/01/14 00:08:26;;;;;;;1999.90;999.90;;;13.30;99.90;;;;;;4938131;28;20419;-76
2023/01/14 00:10:53;;;;;;;1999.90;999.90;;;12.20;99.90;;;;;;4950163;28;20440;-76
2023/01/14 00:13:19;;;;;;;1999.90;999.90;;;12.70;99.90;;;;;;4948321;28;20122;-76
2023/01/14 00:15:55;;;;;;;1999.90;999.90;;;11.00;99.90;;;;;;4941224;29;20176;-76
2023/01/14 00:18:22;;;;;;;1999.90;994.92;;;13.80;99.90;;;;;;4934484;28;20055;-78
2023/01/14 00:20:57;;;;;;;1999.90;999.90;;;12.90;99.90;;;;;;4945683;28;20454;-76
2023/01/14 00:23:23;;;;;;;1999.90;999.90;;;10.60;99.90;;;;;;4948447;28;20051;-77
2023/01/14 00:25:49;;;;;;;1999.90;999.90;;;12.00;99.90;;;;;;4946598;28;20162;-76
2023/01/14 00:28:15;;;;;;;1999.90;999.90;;;12.90;99.90;;;;;;4941068;28;20122;-75
2023/01/14 00:30:42;;;;;;;1999.90;999.90;;;11.90;99.90;;;;;;4938579;28;20473;-75
2023/01/14 00:33:08;;;;;;;1999.90;999.90;;;;;;;;;;4951675;28;20087;-76
2023/01/14 00:35:34;;;;;;;1999.90;999.90;;;12.00;99.90;;;;;;4955241;28;20403;-75
2023/01/14 00:38:00;;;;;;;1999.90;999.90;;;12.10;99.90;;;;;;4952014;28;20043;-81
2023/01/14 00:40:25;;;;;;;1999.90;999.90;;;12.90;99.90;;;;;;4946789;29;20816;-75
2023/01/14 00:42:52;;;;;;;1999.90;999.90;;;;;;;;;;4954727;28;20419;-75
2023/01/14 00:45:17;;;;;;;1999.90;999.90;;;11.60;99.90;;;;;;4956177;28;20047;-75
2023/01/14 00:47:43;;;;;;;1999.90;993.28;;;10.80;99.90;;;;;;4955972;28;20050;-75
2023/01/14 00:50:10;;;;;;;1999.90;999.90;;;12.90;99.90;;;;;;4941872;28;20039;-80
2023/01/14 00:52:36;;;;;;;1999.90;999.90;;;13.40;99.90;;;;;;4947651;28;20376;-75
2023/01/14 00:55:01;;;;;;;1999.90;999.90;;;12.20;99.90;;;;;;4947915;28;20098;-75
2023/01/14 00:57:27;;;;;;;1999.90;999.90;;;11.50;99.90;;;;;;4945357;29;20047;-75
2023/01/14 00:59:53;;;;;;;1999.90;999.90;;;11.80;99.90;;;;;;4954828;28;20126;-76
2023/01/14 01:02:18;;;;;;;1999.90;999.90;;;12.10;99.90;;;;;;4955795;28;20047;-76
2023/01/14 01:04:44;;;;;;;1999.90;999.90;;;11.60;99.90;;;;;;4956903;29;20058;-76
2023/01/14 01:07:10;;;;;;;1999.90;999.90;;;;;;;;;;4957225;28;20053;-75
2023/01/14 01:09:36;;;;;;;1999.90;999.90;;;11.80;99.90;;;;;;4956412;29;20097;-79
2023/01/14 01:12:02;;;;;;;1999.90;982.05;;;11.50;99.90;;;;;;4955268;28;20079;-76
2023/01/14 01:14:28;;;;;;;1999.90;999.90;;;12.70;99.90;;;;;;4940434;28;20441;-75
2023/01/14 01:16:53;;;;;;;1999.90;999.90;;;11.00;99.90;;;;;;4936862;29;20071;-76
2023/01/14 01:19:19;;;;;;;1999.90;999.90;;;14.40;99.90;;;;;;4949390;28;20085;-75
2023/01/14 01:21:45;;;;;;;1999.90;966.45;;;12.40;99.90;;;;;;4954404;28;20051;-75
2023/01/14 01:24:11;;;;;;;1999.90;999.90;;;;;;;;;;4956261;28;20050;-75
2023/01/14 01:26:37;;;;;;;1999.90;999.90;;;12.30;99.90;;;;;;4956201;29;20480;-78
2023/01/14 01:29:04;;;;;;;1999.90;999.90;;;12.20;99.90;;;;;;4949405;29;20083;-75
2023/01/14 01:31:30;;;;;;;1999.90;999.90;;;13.10;99.90;;;;;;4941954;28;20044;-75
2023/01/14 01:33:56;;;;;;;1999.90;999.90;;;11.80;99.90;;;;;;4952817;28;20062;-75
2023/01/14 01:36:25;;;;;;;1999.90;999.90;;;12.40;99.90;;;;;;4941241;28;20043;-76
2023/01/14 01:38:51;;;;;;;1999.90;999.90;;;11.50;99.90;;;;;;4937289;29;20051;-76
2023/01/14 01:41:29;;;;;;;1999.90;999.90;;;11.40;99.90;;;;;;4956472;29;20070;-76
2023/01/14 01:44:02;;;;;;;1999.90;999.90;;;12.20;99.90;;;;;;4956041;29;20047;-76
2023/01/14 01:46:29;;;;;;;1999.90;999.90;;;12.30;99.90;;;;;;4944732;29;20126;-75
2023/01/14 01:49:03;;;;;;;1999.90;999.90;;;11.90;99.90;;;;;;4950125;28;20047;-76
2023/01/14 01:51:33;;;;;;;1999.90;999.90;;;13.80;99.90;;;;;;4935448;28;20059;-77
2023/01/14 01:54:00;;;;;;;1999.90;999.90;;;13.30;99.90;;;;;;4953430;28;20054;-76
2023/01/14 01:56:31;;;;;;;1999.90;999.90;;;12.80;99.90;;;;;;4953883;28;20076;-76
2023/01/14 01:58:57;;;;;;;1999.90;999.90;;;;;;;;;;4951435;28;20490;-76
2023/01/14 02:01:24;;;;;;;1999.90;999.90;;;11.60;99.90;;;;;;4949358;28;20043;-75
2023/01/14 02:03:50;;;;;;;1999.90;999.90;;;;;;;;;;4953134;28;20484;-75
2023/01/14 02:06:17;;;;;;;1999.90;999.90;;;12.60;99.90;;;;;;4944547;28;20054;-75
2023/01/14 02:08:49;;;;;;;1999.90;999.90;;;10.50;99.90;;;;;;4950095;28;20078;-76
2023/01/14 02:11:27;;;;;;;1999.90;999.90;;;12.60;99.90;;;;;;4929554;29;20063;-76
2023/01/14 02:14:16;;;;;;;1999.90;999.90;;;12.90;99.90;;;;;;4951247;28;20122;-76
2023/01/14 02:16:42;;;;;;;1999.90;999.90;;;;;;;;;;4939855;28;20114;-76
2023/01/14 02:19:15;;;;;;;1999.90;999.90;;;13.00;99.90;;;;;;4954098;28;20074;-76
2023/01/14 02:22:17;;;;;;;1999.90;947.97;;;11.80;99.90;;;;;;4939744;28;20045;-76
2023/01/14 02:25:03;;;;;;;1999.90;999.90;;;12.60;99.90;;;;;;4951337;28;20381;-77
2023/01/14 02:27:44;;;;;;;1999.90;940.17;;;12.50;99.90;;;;;;4953426;28;20485;-76
2023/01/14 02:30:28;;;;;;;1999.90;999.90;;;11.80;99.90;;;;;;4955416;28;20445;-78
2023/01/14 02:33:09;;;;;;;1999.90;999.90;;;10.80;99.90;;;;;;4942301;28;20083;-76
2023/01/14 02:35:43;;;;;;;1999.90;999.90;;;12.00;99.90;;;;;;4948547;28;20047;-75
2023/01/14 02:38:31;;;;;;;1999.90;999.90;;;12.90;99.90;;;;;;4950098;28;20055;-76
2023/01/14 02:41:03;;;;;;;1999.90;999.90;;;12.80;99.90;;;;;;4951528;28;20158;-75
2023/01/14 02:46:39;;;;;;;1999.90;999.90;;;13.40;99.90;;;;;;4939723;28;20044;-78
2023/01/14 02:49:09;;;;;;;1999.90;999.90;;;13.00;99.90;;;;;;4941503;28;20524;-76
2023/01/14 02:51:37;;;;;;;1999.90;999.90;;;12.50;99.90;;;;;;4937202;28;20058;-76
2023/01/14 02:54:02;;;;;;;1999.90;999.90;;;12.60;99.90;;;;;;4944694;28;20044;-76
2023/01/14 02:56:28;;;;;;;1999.90;999.90;;;12.30;99.90;;;;;;4942712;28;20039;-76
2023/01/14 02:59:22;;;;;;;1999.90;999.90;;;12.40;99.90;;;;;;4939423;28;20138;-76
2023/01/14 03:02:21;;;;;;;1999.90;999.90;;;12.50;99.90;;;;;;4937869;28;20047;-83
2023/01/14 03:05:02;;;;;;;1999.90;999.90;;;11.50;99.90;;;;;;4942191;28;20499;-77
2023/01/14 03:07:58;;;;;;;1999.90;999.90;;;11.50;99.90;;;;;;4940246;28;20051;-76
2023/01/14 03:10:36;;;;;;;1999.90;995.80;;;12.80;99.90;;;;;;4931707;28;20226;-76
2023/01/14 03:13:05;;;;;;;;;;;11.30;99.90;;;;;;4942374;28;20157;-77
2023/01/14 03:15:43;;;;;;;1999.90;999.90;;;11.90;99.90;;;;;;4946677;28;19926;-77
2023/01/14 03:18:20;;;;;;;1999.90;999.90;;;10.70;99.90;;;;;;4940197;28;20051;-77
2023/01/14 03:20:52;;;;;;;1999.90;999.90;;;11.60;99.90;;;;;;4943891;28;20118;-77
2023/01/14 03:23:22;;;;;;;1999.90;999.90;;;11.30;99.90;;;;;;4940705;28;20062;-81
2023/01/14 03:25:51;;;;;;;1999.90;999.90;;;11.60;99.90;;;;;;4938978;28;20145;-77
2023/01/14 03:28:20;;;;;;;1999.90;999.90;;;12.30;99.90;;;;;;4944726;28;20052;-77
2023/01/14 03:30:51;;;;;;;1999.90;999.90;;;11.20;99.90;;;;;;4947713;28;20059;-77
2023/01/14 03:33:40;;;;;;;1999.90;999.90;;;12.20;99.90;;;;;;4944152;28;20051;-78
2023/01/14 03:36:07;;;;;;;1999.90;999.90;;;11.70;99.90;;;;;;4941893;28;20047;-76
2023/01/14 03:38:45;;;;;;;1999.90;999.90;;;11.40;99.90;;;;;;4940643;28;20047;-79
2023/01/14 03:42:17;;;;;;;1999.90;999.90;;;11.90;99.90;;;;;;4947363;28;20067;-77
2023/01/14 03:44:05;;;;;;;1999.90;999.90;;;11.20;99.90;;;;;;4952971;28;20103;-77
2023/01/14 03:46:31;;;;;;;1999.90;999.90;;;12.00;99.90;;;;;;4957751;28;20067;-77
2023/01/14 03:48:57;;;;;;;1999.90;999.90;;;11.40;99.90;;;;;;4954626;28;20047;-78
2023/01/14 03:51:55;;;;;;;1999.90;999.90;;;12.00;99.90;;;;;;4966264;28;20111;-77
2023/01/14 03:54:36;;;;;;;1999.90;999.90;;;13.20;99.90;;;;;;4945624;28;20094;-76
2023/01/14 03:57:10;;;;;;;1999.90;999.90;;;10.90;99.90;;;;;;4952996;28;20118;-78
2023/01/14 03:59:36;;;;;;;1999.90;999.90;;;;;;;;;;4953333;28;20047;-79
2023/01/14 04:02:03;;;;;;;1999.90;999.90;;;13.20;99.90;;;;;;4952950;28;20087;-79
2023/01/14 04:04:31;;;;;;;1999.90;999.90;;;11.70;99.90;;;;;;4948536;28;20114;-78
2023/01/14 04:06:57;;;;;;;1999.90;999.90;;;;;;;;;;4948934;29;20519;-80
2023/01/14 04:09:22;;;;;;;1999.90;999.90;;;11.00;99.90;;;;;;4952316;28;20051;-79
2023/01/14 04:11:48;;;;;;;1999.90;999.90;;;11.30;99.90;;;;;;4954749;29;20067;-78
2023/01/14 04:16:58;;;;;;;1999.90;979.97;;;11.50;99.90;;;;;;4953496;29;20051;-82
2023/01/14 04:19:23;;;;;;;1999.90;999.90;;;11.60;99.90;;;;;;4946114;28;20067;-78
2023/01/14 04:21:49;;;;;;;1999.90;999.90;;;11.30;99.90;;;;;;4945790;28;20193;-79
2023/01/14 04:24:15;;;;;;;1999.90;999.90;;;11.00;99.90;;;;;;4953369;28;20043;-79
2023/01/14 04:26:40;;;;;;;1999.90;999.90;;;14.20;99.90;;;;;;4951882;29;20074;-80
2023/01/14 04:29:06;;;;;;;1999.90;999.90;;;12.10;99.90;;;;;;4952650;28;20055;-80
2023/01/14 04:31:32;;;;;;;1999.90;999.90;;;11.80;99.90;;;;;;4949561;28;20106;-80
2023/01/14 04:33:58;;;;;;;1999.90;999.90;;;10.90;99.90;;;;;;4952619;28;20055;-80
2023/01/14 04:36:23;;;;;;;1999.90;999.90;;;11.70;99.90;;;;;;4958090;28;20047;-82
2023/01/14 04:38:49;;;;;;;1999.90;999.90;;;11.30;99.90;;;;;;4946198;28;20047;-80
2023/01/14 04:44:01;;;;;;;1999.90;999.90;;;;;;;;;;4939692;28;20047;-87
2023/01/14 04:46:27;;;;;;;1999.90;999.90;;;11.00;99.90;;;;;;4966754;28;20043;-81
2023/01/14 04:48:53;;;;;;;1999.90;999.90;;;;;;;;;;4951596;28;20451;-81
2023/01/14 04:51:19;;;;;;;1999.90;999.90;;;14.70;99.90;;;;;;4947635;28;20102;-82
2023/01/14 04:53:45;;;;;;;1999.90;999.90;;;10.80;99.90;;;;;;4942126;28;20456;-81
2023/01/14 04:56:10;;;;;;;1999.90;997.45;;;9.50;99.90;;;;;;4943899;28;20044;-82
2023/01/14 04:58:36;;;;;;;1999.90;999.90;;;10.80;99.90;;;;;;4950878;28;20098;-82
2023/01/14 05:01:02;;;;;;;1999.90;999.90;;;12.40;99.90;;;;;;4951252;28;20049;-80
2023/01/14 05:03:27;;;;;;;1999.90;999.90;;;10.20;99.90;;;;;;4950398;28;20046;-80
2023/01/14 05:05:53;;;;;;;1999.90;999.90;;;10.60;99.90;;;;;;4938134;28;20144;-85
2023/01/14 05:08:20;;;;;;;1999.90;999.90;;;11.30;99.90;;;;;;4945069;28;20058;-82
2023/01/14 05:10:49;;;;;;;1999.90;999.90;;;12.00;99.90;;;;;;4950450;28;20055;-81
2023/01/14 05:13:15;;;;;;;1999.90;999.90;;;11.90;99.90;;;;;;4952495;28;20408;-81
2023/01/14 05:15:42;;;;;;;1999.90;999.90;;;11.70;99.90;;;;;;4951933;28;20039;-80
2023/01/14 05:18:10;;;;;;;1999.90;999.90;;;9.40;99.90;;;;;;4938633;28;20074;-82
2023/01/14 05:20:36;;;;;;;;;;;13.20;99.90;;;;;;4933701;29;20062;-82
2023/01/14 05:23:05;;;;;;;1999.90;999.90;;;11.80;99.90;;;;;;4937179;29;19923;-81
2023/01/14 05:25:32;;;;;;;1999.90;999.90;;;11.80;99.90;;;;;;4942874;28;20058;-80
2023/01/14 05:27:59;;;;;;;1999.90;999.90;;;11.20;99.90;;;;;;4955199;28;20503;-80
2023/01/14 05:30:25;;;;;;;1999.90;999.90;;;11.20;99.90;;;;;;4939826;29;20059;-81
2023/01/14 05:32:51;;;;;;;1999.90;999.90;;;11.00;99.90;;;;;;4942025;28;20047;-82
2023/01/14 05:35:17;;;;;;;1999.90;999.90;;;11.60;99.90;;;;;;4944529;28;20404;-83
2023/01/14 05:37:43;;;;;;;1999.90;999.90;;;11.80;99.90;;;;;;4936581;28;20048;-88
2023/01/14 05:40:10;;;;;;;1999.90;999.90;;;11.20;99.90;;;;;;4954174;28;20058;-87
2023/01/14 05:45:38;;;;;;;1999.90;999.90;;;13.00;99.90;;;;;;4952362;28;20051;-82
2023/01/14 05:48:11;;;;;;;1999.90;999.90;;;12.80;99.90;;;;;;4956035;29;20499;-85
2023/01/14 05:50:37;;;;;;;1999.90;999.90;;;12.40;99.90;;;;;;4940481;28;20051;-82
2023/01/14 05:53:04;;;;;;;1999.90;999.90;;;11.80;99.90;;;;;;4956251;29;20044;-80
2023/01/14 05:55:30;;;;;;;1999.90;999.90;;;11.90;99.90;;;;;;4954602;28;20118;-80
2023/01/14 05:57:57;;;;;;;1999.90;999.90;;;11.70;99.90;;;;;;4956311;28;20186;-80
2023/01/14 06:08:31;;;;;;;1999.90;999.90;;;11.70;99.90;;;;;;4946482;28;20061;-80
2023/01/14 06:10:58;;;;;;;1999.90;999.90;;;10.70;99.90;;;;;;4942310;28;20405;-79
2023/01/14 06:13:24;;;;;;;1999.90;999.90;;;11.80;99.90;;;;;;4953896;28;20062;-80
2023/01/14 06:15:55;;;;;;;1999.90;999.90;;;11.90;99.90;;;;;;4940611;28;20044;-80
2023/01/14 06:18:21;;;;;;;1999.90;999.90;;;9.60;99.90;;;;;;4941099;29;20083;-80
2023/01/14 06:20:51;;;;;;;1999.90;999.90;;;11.00;99.90;;;;;;4952708;29;20082;-79
2023/01/14 06:23:18;;;;;;;1999.90;985.08;;;9.10;99.90;;;;;;4952838;28;20047;-79
2023/01/14 06:25:46;;;;;;;1999.90;999.90;;;10.30;99.90;;;;;;4940911;28;20523;-81
2023/01/14 06:28:12;;;;;;;1999.90;999.90;;;;;;;;;;4939157;28;20075;-87
2023/01/14 06:30:37;;;;;;;1999.90;999.90;;;11.40;99.90;;;;;;4944601;28;20492;-78
2023/01/14 06:33:03;;;;;;;1999.90;999.90;;;11.40;99.90;;;;;;4947322;28;20086;-77
2023/01/14 06:35:29;;;;;;;1999.90;999.90;;;11.30;99.90;;;;;;4937399;28;20051;-81
2023/01/14 06:37:54;;;;;;;1999.90;999.90;;;11.10;99.90;;;;;;4937213;28;20047;-80
2023/01/14 06:40:20;;;;;;;1999.90;999.90;;;11.10;99.90;;;;;;4939076;28;20095;-78
2023/01/14 06:42:46;;;;;;;1999.90;962.67;;;11.60;99.90;;;;;;4953538;28;20090;-79
2023/01/14 06:45:12;;;;;;;1999.90;999.90;;;9.60;99.90;;;;;;4949685;28;20048;-79
2023/01/14 06:47:38;;;;;;;1999.90;999.90;;;13.50;99.90;;;;;;4951826;28;20059;-80
2023/01/14 06:50:05;;;;;;;1999.90;999.90;;;12.40;99.90;;;;;;4941306;28;20055;-78
2023/01/14 06:52:31;;;;;;;1999.90;999.90;;;11.10;99.90;;;;;;4952526;28;20043;-78
2023/01/14 06:54:58;;;;;;;1999.90;999.90;;;11.20;99.90;;;;;;4949493;28;20054;-77
2023/01/14 06:57:24;;;;;;;1999.90;999.90;;;13.50;99.90;;;;;;4951277;29;20066;-76
2023/01/14 06:59:50;;;;;;;1999.90;999.90;;;11.10;99.90;;;;;;4954380;28;20074;-76
2023/01/14 07:02:16;;;;;;;1999.90;999.90;;;12.70;99.90;;;;;;4936210;29;20051;-77
2023/01/14 07:04:43;;;;;;;1999.90;999.90;;;12.00;99.90;;;;;;4951755;28;20042;-76
2023/01/14 07:07:09;;;;;;;1999.90;934.72;;;11.80;99.90;;;;;;4946286;28;20042;-78
2023/01/14 07:09:35;;;;;;;1999.90;999.90;;;12.60;99.90;;;;;;4951389;28;20093;-78
2023/01/14 07:12:01;;;;;;;1999.90;999.90;;;;;;;;;;4951759;29;20043;-76
2023/01/14 07:14:26;;;;;;;1999.90;999.90;;;9.60;99.90;;;;;;4953778;29;20050;-77
2023/01/14 07:16:52;;;;;;;1999.90;999.90;;;11.90;99.90;;;;;;4938761;28;20118;-77
2023/01/14 07:19:18;;;;;;;1999.90;999.90;;;11.50;99.90;;;;;;4950478;28;20054;-76
2023/01/14 07:21:43;;;;;;;1999.90;999.90;;;13.60;99.90;;;;;;4936950;28;20040;-76
2023/01/14 07:24:10;;;;;;;1999.90;999.90;;;12.00;99.90;;;;;;4948439;28;20058;-75
2023/01/14 07:26:36;;;;;;;1999.90;999.90;;;12.00;99.90;;;;;;4949689;28;20083;-76
2023/01/14 07:29:03;;;;;;;1999.90;999.90;;;11.90;99.90;;;;;;4954820;28;20083;-77
2023/01/14 07:31:29;;;;;;;1999.90;999.90;;;15.70;99.90;;;;;;4951858;28;20435;-76
2023/01/14 07:33:54;;;;;;;1999.90;999.90;;;11.30;99.90;;;;;;4953622;29;20043;-76
2023/01/14 07:36:20;;;;;;;1999.90;999.90;;;11.40;99.90;;;;;;4952309;28;20131;-76
2023/01/14 07:38:46;;;;;;;1999.90;999.90;;;11.00;99.90;;;;;;4951154;28;20047;-76
2023/01/14 07:41:17;;;;;;;1999.90;999.90;;;12.50;99.90;;;;;;4950960;28;20114;-76
2023/01/14 07:43:44;;;;;;;1999.90;999.90;;;12.40;99.90;;;;;;4948280;28;20047;-76
2023/01/14 07:46:09;;;;;;;1999.90;999.90;;;11.90;99.90;;;;;;4949735;28;20499;-75
2023/01/14 07:48:35;;;;;;;1999.90;999.90;;;8.50;99.90;;;;;;4943213;28;20052;-76
2023/01/14 07:51:05;;;;;;;1999.90;999.90;;;10.30;99.90;;;;;;4953218;29;20050;-76
2023/01/14 07:53:32;;;;;;;1999.90;999.90;;;12.40;99.90;;;;;;4953644;28;20046;-76
2023/01/14 07:56:02;;;;;;;1999.90;999.90;;;11.80;99.90;;;;;;4952669;29;20122;-80
2023/01/14 07:58:27;;;;;;;1999.90;999.90;;;12.10;99.90;;;;;;4953958;29;20047;-75
2023/01/14 08:00:53;;;;;;;1999.90;999.90;;;12.30;99.90;;;;;;4953124;28;20047;-75
2023/01/14 08:03:20;;;;;;;1999.90;999.90;;;10.40;99.90;;;;;;4964668;28;20047;-78
2023/01/14 08:05:46;;;;;;;1999.90;999.90;;;12.10;99.90;;;;;;4957379;28;20047;-75
2023/01/14 08:08:12;;;;;;;1999.90;999.90;;;;;;;;;;4946053;28;20043;-75
2023/01/14 08:10:38;;;;;;;1999.90;999.90;;;12.60;99.90;;;;;;4951454;28;20186;-76
2023/01/14 08:13:04;;;;;;;1999.90;999.90;;;11.80;99.90;;;;;;4950035;28;20126;-75
2023/01/14 08:15:29;;;;;;;1999.90;999.90;;;11.80;99.90;;;;;;4951174;28;20050;-75
2023/01/14 08:17:55;;;;;;;1999.90;999.90;;;11.50;99.90;;;;;;4943770;28;20687;-76
2023/01/14 08:20:22;;;;;;;1999.90;999.90;;;11.60;99.90;;;;;;4949885;28;20495;-82
2023/01/14 08:22:59;;;;;;;1999.90;999.90;;;12.20;99.90;;;;;;4962451;28;20484;-76
2023/01/14 08:25:27;;;;;;;1999.90;999.90;;;12.30;99.90;;;;;;4916829;29;20047;-77
2023/01/14 08:27:53;;;;;;;1999.90;999.90;;;12.30;99.90;;;;;;4945911;28;20078;-79
2023/01/14 08:30:19;;;;;;;1999.90;999.90;;;11.40;99.90;;;;;;4952503;28;20098;-84
2023/01/14 08:32:44;;;;;;;1999.90;662.65;;;11.50;99.90;;;;;;4940474;28;20133;-81
2023/01/14 08:35:10;;;;;;;1999.90;999.90;;;11.20;99.90;;;;;;4952881;29;20063;-81
2023/01/14 08:37:36;;;;;;;1999.90;999.90;;;11.50;99.90;;;;;;4949570;28;20109;-87
2023/01/14 08:40:02;;;;;;;1999.90;999.90;;;12.10;99.90;;;;;;4943737;28;20067;-81
2023/01/14 08:42:28;;;;;;;1999.90;823.80;;;11.40;99.90;;;;;;4949869;28;20114;-81
2023/01/14 08:44:54;;;;;;;1999.90;989.63;;;;;;;;;;4949352;28;20039;-79
2023/01/14 08:47:20;;;;;;;1999.90;999.90;;;13.70;99.90;;;;;;4937898;28;20042;-79
2023/01/14 08:49:45;;;;;;;1999.90;678.05;;;11.20;99.90;;;;;;4945219;28;20489;-81
2023/01/14 08:52:11;;;;;;;1999.90;999.90;;;;;;;;;;4935047;28;20154;-82
2023/01/14 08:54:37;;;;;;;1999.90;999.90;;;11.90;99.90;;;;;;4951215;28;20051;-82
2023/01/14 08:57:03;;;;;;;1999.90;999.90;;;13.40;99.90;;;;;;4953953;28;20388;-81
2023/01/14 08:59:29;;;;;;;1999.90;999.90;;;12.10;99.90;;;;;;4951398;28;20412;-82
2023/01/14 09:01:54;;;;;;;1999.90;999.90;;;12.10;99.90;;;;;;4935742;28;20044;-82
2023/01/14 09:04:21;;;;;;;1999.90;889.45;;;8.50;99.90;;;;;;4963910;28;21142;-82
2023/01/14 09:17:45;;;;;;;1999.90;999.90;;;14.30;99.90;;;;;;4950659;28;20476;-81
2023/01/14 09:20:15;;;;;;;1999.90;999.90;;;11.20;99.90;;;;;;4953000;28;20053;-81
2023/01/14 09:22:41;;;;;;;1999.90;903.70;;;14.30;99.90;;;;;;4950493;28;20047;-81
2023/01/14 09:25:07;;;;;;;1999.90;740.00;;;11.90;99.90;;;;;;4947540;28;20051;-83
2023/01/14 09:27:32;;;;;;;1999.90;831.33;;;10.50;99.90;;;;;;4937975;29;20087;-82
2023/01/14 09:29:59;;;;;;;1999.90;776.47;;;12.70;99.90;;;;;;4953096;29;20051;-83
2023/01/14 09:32:24;;;;;;;1999.90;927.75;;;9.70;99.90;;;;;;4952213;28;20055;-82
2023/01/14 09:34:52;;;;;;;1999.90;944.60;;;10.70;99.90;;;;;;4950716;29;20062;-82
2023/01/14 09:37:21;;;;;;;1999.90;999.90;;;11.50;99.90;;;;;;4944824;28;20473;-84
2023/01/14 09:39:47;;;;;;;1999.90;517.80;;;;;;;;;;4949608;29;20159;-86
2023/01/14 09:42:39;;;;;;;1999.90;939.97;;;11.80;99.90;;;;;;4947523;28;20048;-83
2023/01/14 09:45:15;;;;;;;1999.90;806.22;;;12.40;99.90;;;;;;4947715;29;20055;-83
2023/01/14 09:47:43;;;;;;;1999.90;838.53;;;11.80;99.90;;;;;;4941607;28;20047;-82
2023/01/14 09:50:13;;;;;;;;;;;11.50;99.90;;;;;;4956564;29;20118;-82
2023/01/14 09:53:04;;;;;;;1999.90;516.38;;;11.60;99.90;;;;;;4953127;28;19965;-82
2023/01/14 09:55:31;;;;;;;1999.90;829.55;;;;;;;;;;4937910;28;20048;-83
2023/01/14 09:58:19;;;;;;;1999.90;917.25;;;12.50;99.90;;;;;;4954902;28;20679;-84
2023/01/14 10:00:56;;;;;;;1999.90;756.42;;;14.30;99.90;;;;;;4952395;29;20476;-83
2023/01/14 10:03:31;;;;;;;1823.13;778.75;;;12.60;99.90;;;;;;4953534;28;20075;-83
2023/01/14 10:06:03;;;;;;;1999.90;953.03;;;11.60;99.90;;;;;;4953914;29;20055;-82
2023/01/14 10:08:36;;;;;;;1999.90;458.35;;;12.60;99.90;;;;;;4953354;28;20396;-82
2023/01/14 10:11:04;;;;;;;1999.90;852.50;;;12.50;99.90;;;;;;4936139;28;20134;-83
2023/01/14 10:13:33;;;;;;;;;;;11.70;99.90;;;;;;4946136;28;20087;-81
2023/01/14 10:16:20;;;;;;;1999.90;431.23;;;12.80;99.90;;;;;;4975862;28;19922;-81
2023/01/14 10:18:52;;;;;;;1999.90;642.22;;;12.20;99.90;;;;;;4951359;28;20555;-81
2023/01/14 10:21:25;;;;;;;1975.95;380.33;;;11.60;99.90;;;;;;4952999;28;20058;-82
2023/01/14 10:23:50;;;;;;;1999.90;640.72;;;13.80;99.90;;;;;;4951673;28;20098;-81
2023/01/14 10:26:18;;;;;;;1999.90;662.33;;;12.70;99.90;;;;;;4949716;28;20063;-82
2023/01/14 10:28:46;;;;;;;;;;;12.00;99.90;;;;;;4952844;29;20078;-81
2023/01/14 10:31:24;;;;;;;1999.90;516.15;;;12.70;99.90;;;;;;4951910;29;19937;-84
2023/01/14 10:33:50;;;;;;;1999.90;669.10;;;9.20;99.90;;;;;;4949792;29;20055;-82
2023/01/14 10:36:21;;;;;;;1999.90;653.67;;;11.80;99.90;;;;;;4948396;28;20542;-78
2023/01/14 10:38:47;;;;;;;1999.90;735.53;;;11.40;99.90;;;;;;4948786;28;20556;-82
2023/01/14 10:41:14;;;;;;;1999.90;904.55;;;14.10;99.90;;;;;;4944019;28;20051;-80
2023/01/14 10:43:44;;;;;;;1999.90;675.63;;;13.90;99.90;;;;;;4948076;28;20051;-81
2023/01/14 10:46:18;;;;;;;1999.90;999.90;;;13.80;99.90;;;;;;4947087;29;20048;-80
2023/01/14 10:48:58;;;;;;;1999.90;783.95;;;10.90;99.90;;;;;;4950554;28;20114;-84
2023/01/14 10:51:36;;;;;;;1999.90;757.22;;;12.50;99.90;;;;;;4949132;28;20381;-81
2023/01/14 10:54:12;;;;;;;1886.50;286.85;;;12.90;99.90;;;;;;4954192;28;20130;-82
2023/01/14 10:56:45;;;;;;;1999.90;999.90;;;13.00;99.90;;;;;;4955026;28;20039;-81
2023/01/14 10:59:30;;;;;;;1999.90;629.17;;;12.50;99.90;;;;;;4946423;28;20051;-83
2023/01/14 11:01:56;;;;;;;1999.90;999.90;;;12.30;99.90;;;;;;4947612;28;20105;-82
2023/01/14 11:04:30;;;;;;;1999.90;517.00;;;14.80;99.90;;;;;;4951936;28;20043;-83
2023/01/14 11:06:56;;;;;;;1999.90;865.80;;;12.90;99.90;;;;;;4948584;28;20504;-83
2023/01/14 11:09:28;;;;;;;1999.90;948.85;;;12.30;99.90;;;;;;4950838;29;20059;-83
2023/01/14 11:11:55;;;;;;;1999.90;876.60;;;9.80;99.90;;;;;;4952450;28;20520;-83
2023/01/14 11:14:31;;;;;;;1999.90;858.47;;;11.10;99.90;;;;;;4948827;28;20043;-84
2023/01/14 11:16:57;;;;;;;1999.90;999.90;;;;;;;;;;4935926;28;20044;-83
2023/01/14 11:19:24;;;;;;;1999.90;999.90;;;13.10;99.90;;;;;;4960642;28;20054;-82
2023/01/14 11:21:56;;;;;;;1999.90;999.90;;;11.10;99.90;;;;;;4951562;29;20055;-84
2023/01/14 11:24:40;;;;;;;1999.90;690.15;;;14.20;99.90;;;;;;4938743;28;20355;-84
2023/01/14 11:27:06;;;;;;;1999.90;982.13;;;12.20;99.90;;;;;;4940064;28;20404;-83
2023/01/14 11:29:41;;;;;;;1999.90;281.13;;;12.40;99.90;;;;;;4963554;28;20562;-86
2023/01/14 11:32:12;;;;;;;1999.90;848.85;;;14.50;99.90;;;;;;4946975;29;20055;-83
2023/01/14 11:35:02;;;;;;;1999.90;680.92;;;13.10;99.90;;;;;;4932579;28;20051;-83
2023/01/14 11:37:37;;;;;;;1999.90;895.13;;;13.40;99.90;;;;;;4963210;28;20616;-86
2023/01/14 11:40:05;;;;;;;1999.90;515.40;;;13.20;99.90;;;;;;4946336;28;20531;-85
2023/01/14 11:42:37;;;;;;;1999.90;510.55;;;13.40;99.90;;;;;;4951633;29;20456;-86
2023/01/14 11:45:11;;;;;;;1999.90;907.00;;;12.70;99.90;;;;;;4949610;28;20102;-85
2023/01/14 11:47:52;;;;;;;1999.90;885.90;;;14.40;99.90;;;;;;4933544;29;20114;-86
2023/01/14 11:50:27;;;;;;;1999.90;858.05;;;11.20;99.90;;;;;;4954970;28;20510;-88
2023/01/14 11:53:03;;;;;;;1999.90;773.30;;;11.50;99.90;;;;;;4940793;28;20057;-88
2023/01/14 11:55:35;;;;;;;1999.90;411.13;;;13.20;99.90;;;;;;4951476;28;20047;-86
2023/01/14 11:58:20;;;;;;;1999.90;750.50;;;13.50;99.90;;;;;;4950280;28;20460;-87
2023/01/14 12:01:01;;;;;;;1999.90;644.25;;;13.10;99.90;;;;;;4945954;28;20052;-87
2023/01/14 12:03:31;;;;;;;1999.90;890.30;;;12.20;99.90;;;;;;4957450;28;20054;-88
2023/01/14 12:05:58;;;;;;;1999.90;999.90;;;13.40;99.90;;;;;;4951386;28;20385;-87
2023/01/14 12:08:28;;;;;;;1999.90;999.90;;;13.20;99.90;;;;;;4941715;28;20117;-86
2023/01/14 12:10:59;;;;;;;1999.90;390.58;;;14.50;99.90;;;;;;4942968;28;20055;-87
2023/01/14 12:16:48;;;;;;;1999.90;393.48;;;14.70;99.90;;;;;;4948386;28;20134;-85
2023/01/14 12:19:33;;;;;;;1999.90;999.90;;;12.10;99.90;;;;;;4951666;28;20480;-87
2023/01/14 12:22:15;;;;;;;1999.90;792.78;;;14.40;99.90;;;;;;4949747;28;20043;-90
2023/01/14 12:24:59;;;;;;;1999.90;999.90;;;13.60;99.90;;;;;;4948118;29;20059;-88
2023/01/14 12:27:46;;;;;;;1999.90;436.20;;;15.00;99.90;;;;;;4934255;29;20396;-89
2023/01/14 12:30:38;;;;;;;1999.90;999.90;;;12.80;99.90;;;;;;4933571;29;20055;-90
2023/01/14 12:33:24;;;;;;;1729.47;617.22;;;14.20;99.90;;;;;;4943416;28;20044;-92
2023/01/14 12:35:50;;;;;;;1999.90;334.33;;;;;;;;;;4935684;29;20066;-88
2023/01/14 12:46:41;;;;;;;1999.90;914.78;;;;;;;;;;4954295;29;20109;-88
2023/01/14 12:49:07;;;;;;;1999.90;999.90;;;;;;;;;;4948524;28;20047;-89
2023/01/14 12:51:37;;;;;;;1999.90;949.85;;;13.80;99.90;;;;;;4956952;28;20080;-88
2023/01/14 12:54:06;;;;;;;1999.90;999.90;;;11.70;99.90;;;;;;4949458;28;20090;-88
2023/01/14 12:56:51;;;;;;;1999.90;956.42;;;11.20;99.90;;;;;;4949086;28;20039;-88
2023/01/14 12:59:45;;;;;;;1999.90;721.30;;;14.20;99.90;;;;;;4937009;29;20079;-88
2023/01/14 13:02:17;;;;;;;1999.90;999.90;;;14.50;99.90;;;;;;4946215;29;20512;-88
2023/01/14 13:04:52;;;;;;;1999.90;999.90;;;14.20;99.90;;;;;;4964418;28;20107;-88